This is the latest recevied weather packets stored in our database for station/object OE-11204. If no packets are shown the sender has not sent any weather packets the latest 10 day(s).
| Time | Temp. | Humidity | Pressure | Rain* | Wind** | Luminosity | Snow |
|---|---|---|---|---|---|---|---|
| 1787713515 | 12.78° C | 94% | 1019.9 hPa | 0 mm | - | 0 W/m² | - |
| 1787712915 | 12.78° C | 93% | 1019.9 hPa | 0 mm | - | 0 W/m² | - |
| 1787712087 | 12.78° C | 93% | 1019.7 hPa | 0 mm | - | 0 W/m² | - |
| 1787711714 | 13.33° C | 92% | 1019.6 hPa | 0 mm | - | 0 W/m² | - |
| 1787711115 | 13.33° C | 90% | 1019.4 hPa | 0 mm | - | 0 W/m² | - |
| 1787710288 | 13.33° C | 91% | 1019.4 hPa | 0 mm | - | 0 W/m² | - |
| 1787709915 | 13.33° C | 92% | 1019.4 hPa | 0 mm | - | 0 W/m² | - |
| 1787709315 | 13.33° C | 92% | 1019.2 hPa | 0 mm | - | 0 W/m² | - |
| 1787708487 | 13.33° C | 92% | 1019.1 hPa | 0 mm | - | 0 W/m² | - |
| 1787708115 | 13.33° C | 91% | 1018.9 hPa | 0 mm | - | 0 W/m² | - |
| 1787707515 | 13.33° C | 91% | 1018.9 hPa | 0 mm | - | 0 W/m² | - |
| 1787706687 | 13.89° C | 91% | 1018.8 hPa | 0 mm | - | 0 W/m² | - |
| 1787706314 | 13.89° C | 90% | 1018.7 hPa | 0 mm | - | 0 W/m² | - |
| 1787705715 | 13.33° C | 93% | 1018.8 hPa | 0 mm | - | 0 W/m² | - |
| 1787704887 | 13.89° C | 92% | 1018.5 hPa | 0 mm | - | 0 W/m² | - |
| 1787704515 | 13.33° C | 93% | 1018.4 hPa | 0 mm | - | 0 W/m² | - |
| 1787703915 | 13.89° C | 93% | 1018.4 hPa | 0 mm | - | 0 W/m² | - |
| 1787703087 | 13.89° C | 92% | 1018.3 hPa | 0 mm | - | 0 W/m² | - |
| 1787702715 | 13.89° C | 93% | 1018.4 hPa | 0 mm | - | 0 W/m² | - |
| 1787702115 | 13.33° C | 95% | 1018.3 hPa | 0 mm | - | 0 W/m² | - |
| 1787701287 | 13.89° C | 96% | 1018.3 hPa | 0 mm | - | 0 W/m² | - |
| 1787700915 | 13.89° C | 95% | 1018.3 hPa | 0 mm | - | 0 W/m² | - |
| 1787700315 | 13.89° C | 95% | 1018.1 hPa | 0 mm | - | 0 W/m² | - |
| 1787699715 | 14.44° C | 94% | 1018 hPa | 0 mm | - | 0 W/m² | - |
| 1787699114 | 14.44° C | 94% | 1017.9 hPa | 0 mm | - | 0 W/m² | - |
* Rain latest hour (hover to see other rain measurements)
** Current wind speed in m/s (hover to see current wind gust speed)